Time;durP1;ratioP1;P1;durP2;ratioP2;P2;SDS_P1;SDS_P2;PMS_P1;PMS_P2;Temp;Humidity;BMP_temperature;BMP_pressure;BME280_temperature;BME280_humidity;BME280_pressure;Samples;Min_cycle;Max_cycle;Signal;HPM_P1;HPM_P2
2023/01/08 00:03:48;;;;;;;57.57;27.77;;;;;;;4.30;100.00;100299.28;3460682;84;98941;-87
2023/01/08 00:08:49;;;;;;;56.87;28.87;;;;;;;4.27;100.00;100288.49;3456799;83;26243;-88
2023/01/08 00:13:50;;;;;;;56.57;30.27;;;;;;;4.23;100.00;100279.43;3458579;83;99095;-88
2023/01/08 00:18:51;;;;;;;57.73;28.60;;;;;;;4.21;100.00;100270.00;3456041;85;33240;-88
2023/01/08 00:23:52;;;;;;;55.37;28.97;;;;;;;4.18;100.00;100261.94;3458401;85;98786;-88
2023/01/08 00:28:53;;;;;;;51.50;28.73;;;;;;;4.15;100.00;100262.61;3460336;85;32889;-88
2023/01/08 00:33:54;;;;;;;53.17;28.57;;;;;;;4.14;100.00;100262.97;3437115;85;98962;-88
2023/01/08 00:38:54;;;;;;;51.13;26.47;;;;;;;4.11;100.00;100254.09;3471577;84;32322;-88
2023/01/08 00:43:55;;;;;;;50.97;27.63;;;;;;;4.08;100.00;100258.84;3456908;85;99003;-88
2023/01/08 00:48:56;;;;;;;51.27;29.27;;;;;;;4.05;100.00;100258.95;3456042;85;31187;-87
2023/01/08 00:53:57;;;;;;;62.87;30.73;;;;;;;4.03;100.00;100248.98;3454261;85;98794;-88
2023/01/08 00:58:57;;;;;;;57.43;31.00;;;;;;;3.99;100.00;100239.88;3465760;85;32247;-87
2023/01/08 01:03:58;;;;;;;66.53;34.20;;;;;;;3.94;100.00;100230.56;3455382;83;99074;-88
2023/01/08 01:08:59;;;;;;;55.10;29.15;;;;;;;3.87;100.00;100239.86;3452335;83;31618;-89
2023/01/08 01:14:00;;;;;;;59.17;29.73;;;;;;;3.84;100.00;100239.75;3460680;83;98959;-88
2023/01/08 01:19:01;;;;;;;56.00;28.73;;;;;;;3.81;100.00;100243.94;3459940;85;31733;-88
2023/01/08 01:24:05;;;;;;;52.23;28.80;;;;;;;3.78;100.00;100241.09;3455859;85;99042;-88
2023/01/08 01:29:05;;;;;;;67.03;33.57;;;;;;;3.75;100.00;100231.67;3461916;84;31510;-88
2023/01/08 01:34:06;;;;;;;53.77;28.73;;;;;;;3.74;100.00;100234.17;3469963;83;98926;-88
2023/01/08 01:39:07;;;;;;;58.00;29.47;;;;;;;3.70;100.00;100229.16;3454112;85;31605;-88
2023/01/08 01:44:41;;;;;;;54.97;28.23;;;;;;;3.68;100.00;100230.63;3452965;83;98675;-88
2023/01/08 01:49:48;;;;;;;55.50;29.07;;;;;;;3.66;100.00;100222.80;3456410;84;31403;-88
2023/01/08 01:54:50;;;;;;;52.23;26.10;;;;;;;3.64;100.00;100224.26;3445335;84;98581;-89
2023/01/08 01:59:53;;;;;;;49.93;28.25;;;;;;;3.60;100.00;100216.56;3466822;83;31131;-87
2023/01/08 02:04:54;;;;;;;56.47;30.17;;;;;;;3.58;100.00;100218.80;3479917;83;98674;-88
2023/01/08 02:10:03;;;;;;;53.60;30.90;;;;;;;3.57;100.00;100213.94;3480667;83;31652;-88
2023/01/08 02:15:48;;;;;;;55.17;30.12;;;;;;;3.54;100.00;100203.72;3480540;83;98751;-87
2023/01/08 02:21:02;;;;;;;57.87;29.80;;;;;;;3.53;100.00;100211.66;3437004;83;28169;-88
2023/01/08 02:26:18;;;;;;;56.13;28.15;;;;;;;3.51;100.00;100192.72;3477986;82;31155;-88
2023/01/08 02:31:21;;;;;;;52.87;27.33;;;;;;;3.48;100.00;100183.30;3479488;83;98992;-87
2023/01/08 02:36:41;;;;;;;51.35;27.27;;;;;;;3.44;100.00;100171.49;3491308;83;31097;-89
2023/01/08 02:42:08;;;;;;;49.35;26.50;;;;;;;3.43;100.00;100168.55;3478971;83;98960;-88
2023/01/08 02:47:20;;;;;;;48.73;25.88;;;;;;;3.41;100.00;100171.38;3485984;83;30114;-88
2023/01/08 02:52:24;;;;;;;49.80;26.20;;;;;;;3.40;100.00;100165.70;3443949;83;98594;-88
2023/01/08 02:57:28;;;;;;;53.35;26.17;;;;;;;3.38;100.00;100168.75;3491069;83;32054;-87
2023/01/08 03:02:32;;;;;;;48.95;26.60;;;;;;;3.36;100.00;100164.23;3479661;83;99032;-89
2023/01/08 03:07:33;;;;;;;49.77;25.17;;;;;;;3.34;100.00;100159.67;3489815;83;31695;-87
2023/01/08 03:12:48;;;;;;;49.23;27.37;;;;;;;3.30;100.00;100156.05;3489429;83;98672;-87
2023/01/08 03:17:53;;;;;;;51.73;25.80;;;;;;;3.28;100.00;100141.97;3494004;83;27237;-87
2023/01/08 03:22:58;;;;;;;48.63;25.43;;;;;;;3.26;100.00;100130.65;3495629;83;98752;-87
2023/01/08 03:28:02;;;;;;;46.33;24.83;;;;;;;3.23;100.00;100129.95;3485970;83;26351;-87
2023/01/08 03:33:05;;;;;;;49.75;26.12;;;;;;;3.21;100.00;100132.22;3478443;83;99048;-87
2023/01/08 03:38:11;;;;;;;50.43;26.00;;;;;;;3.20;100.00;100124.39;3487537;83;28204;-87
2023/01/08 03:43:13;;;;;;;45.80;24.30;;;;;;;3.17;100.00;100117.69;3492041;83;98528;-88
2023/01/08 03:48:15;;;;;;;46.97;24.63;;;;;;;3.15;100.00;100102.84;3488834;83;32546;-89
2023/01/08 03:53:16;;;;;;;49.45;26.52;;;;;;;3.13;100.00;100097.77;3480059;83;99029;-88
2023/01/08 03:58:17;;;;;;;48.90;24.90;;;;;;;3.13;100.00;100102.39;3493428;82;31594;-88
2023/01/08 04:03:18;;;;;;;62.10;29.80;;;;;;;3.11;100.00;100095.92;3499401;83;98980;-90
2023/01/08 04:08:19;;;;;;;75.00;34.50;;;;;;;3.09;100.00;100076.45;3495737;83;31615;-88
2023/01/08 04:13:19;;;;;;;84.47;39.67;;;;;;;3.09;100.00;100081.08;3484903;83;98970;-89
2023/01/08 04:18:20;;;;;;;64.13;31.47;;;;;;;3.07;100.00;100082.77;3492117;83;31035;-88
2023/01/08 04:23:21;;;;;;;51.87;29.60;;;;;;;3.04;100.00;100090.80;3491089;83;99119;-88
2023/01/08 04:28:23;;;;;;;72.00;36.03;;;;;;;3.03;100.00;100090.58;3492576;83;32409;-88
2023/01/08 04:33:24;;;;;;;76.65;39.85;;;;;;;3.02;100.00;100080.84;3485207;83;98969;-88
2023/01/08 04:38:25;;;;;;;73.97;39.03;;;;;;;2.99;100.00;100062.47;3488443;83;35483;-88
2023/01/08 04:43:27;;;;;;;81.03;41.87;;;;;;;2.94;100.00;100066.20;3483109;83;98994;-87
2023/01/08 04:48:29;;;;;;;54.97;31.33;;;;;;;2.92;100.00;100046.73;3484261;83;34870;-87
2023/01/08 04:53:35;;;;;;;54.27;30.20;;;;;;;2.92;100.00;100046.73;3491673;83;98687;-88
2023/01/08 04:58:37;;;;;;;65.17;36.13;;;;;;;2.92;100.00;100045.92;3493476;82;25953;-86
2023/01/08 05:03:38;;;;;;;49.37;29.00;;;;;;;2.90;100.00;100035.38;3465846;83;98779;-89
2023/01/08 05:08:39;;;;;;;54.33;29.03;;;;;;;2.86;100.00;100035.03;3456612;83;34883;-86
2023/01/08 05:13:40;;;;;;;47.00;24.30;;;;;;;2.86;100.00;100047.27;3464674;85;98981;-87
2023/01/08 05:18:41;;;;;;;46.57;25.23;;;;;;;2.84;100.00;100052.25;3458404;83;35806;-87
2023/01/08 05:23:46;;;;;;;43.07;23.47;;;;;;;2.85;100.00;100055.97;3453108;84;99134;-88
2023/01/08 05:28:47;;;;;;;49.07;26.37;;;;;;;2.86;100.00;100047.27;3463513;83;26786;-88
2023/01/08 05:33:48;;;;;;;51.97;27.00;;;;;;;2.81;100.00;100044.75;3450889;85;98998;-88
2023/01/08 05:38:49;;;;;;;47.87;24.40;;;;;;;2.81;100.00;100037.41;3458260;85;34806;-88
2023/01/08 05:43:50;;;;;;;42.78;24.23;;;;;;;2.79;100.00;100034.21;3455416;85;98861;-87
2023/01/08 05:48:51;;;;;;;55.13;30.87;;;;;;;2.77;100.00;100029.69;3468727;84;35061;-87
2023/01/08 05:53:51;;;;;;;50.43;28.73;;;;;;;2.72;100.00;100024.47;3462344;85;99004;-86
2023/01/08 05:58:55;;;;;;;45.37;25.93;;;;;;;2.68;100.00;100010.53;3453674;83;35195;-87
2023/01/08 06:03:57;;;;;;;46.97;24.53;;;;;;;2.65;100.00;100022.86;3446798;85;98923;-87
2023/01/08 06:08:58;;;;;;;46.73;24.50;;;;;;;2.61;100.00;100011.06;3461096;83;25971;-88
2023/01/08 06:13:59;;;;;;;46.47;24.93;;;;;;;2.58;100.00;100013.66;3452319;83;98779;-89
2023/01/08 06:19:00;;;;;;;48.07;25.93;;;;;;;2.57;100.00;100002.58;3462322;83;34935;-88
2023/01/08 06:24:00;;;;;;;48.90;26.07;;;;;;;2.55;100.00;100002.90;3453388;84;98950;-87
2023/01/08 06:29:01;;;;;;;51.07;26.07;;;;;;;2.56;100.00;100017.29;3452842;84;35046;-87
2023/01/08 06:34:02;;;;;;;52.43;27.10;;;;;;;2.56;100.00;100017.29;3454818;83;98959;-86
2023/01/08 06:39:06;;;;;;;51.52;24.90;;;;;;;2.55;100.00;100009.69;3468247;83;34896;-89
2023/01/08 06:44:07;;;;;;;60.12;29.23;;;;;;;2.53;100.00;100001.09;3453783;84;99052;-86
2023/01/08 06:49:09;;;;;;;56.67;27.57;;;;;;;2.51;100.00;99982.19;3460927;85;32564;-86
2023/01/08 06:54:10;;;;;;;50.67;25.83;;;;;;;2.49;100.00;99984.42;3457531;83;98865;-85
2023/01/08 06:59:10;;;;;;;49.13;25.13;;;;;;;2.48;100.00;99982.84;3453293;85;32490;-86
2023/01/08 07:04:11;;;;;;;44.30;25.30;;;;;;;2.46;100.00;99968.23;3454512;83;98855;-86
2023/01/08 07:09:14;;;;;;;49.67;26.23;;;;;;;2.45;100.00;99971.27;3461490;84;32456;-87
2023/01/08 07:14:14;;;;;;;51.63;26.83;;;;;;;2.43;100.00;99962.13;3449914;83;98794;-85
2023/01/08 07:19:15;;;;;;;52.67;25.33;;;;;;;2.42;100.00;99964.61;3461399;84;32514;-87
2023/01/08 07:24:16;;;;;;;53.53;29.37;;;;;;;2.40;100.00;99965.49;3452670;83;98991;-87
2023/01/08 07:29:17;;;;;;;54.70;28.53;;;;;;;2.37;100.00;99972.16;3451220;84;33028;-84
2023/01/08 07:34:18;;;;;;;56.10;28.03;;;;;;;2.36;100.00;99965.92;3451639;84;99218;-87
2023/01/08 07:39:18;;;;;;;48.68;27.48;;;;;;;2.33;100.00;99967.16;3456285;84;32443;-86
2023/01/08 07:44:19;;;;;;;53.33;27.20;;;;;;;2.32;100.00;99957.43;3455015;84;98711;-87
2023/01/08 07:49:20;;;;;;;52.10;27.20;;;;;;;2.34;100.00;99958.69;3441630;84;26135;-90
2023/01/08 07:54:21;;;;;;;48.83;27.13;;;;;;;2.35;100.00;99948.05;3462954;84;98811;-90
2023/01/08 07:59:21;;;;;;;51.98;27.65;;;;;;;2.39;100.00;99941.38;3463708;83;26022;-90
2023/01/08 08:04:23;;;;;;;63.83;33.07;;;;;;;2.42;100.00;99953.75;3442231;83;98924;-90
2023/01/08 08:09:24;;;;;;;54.73;27.43;;;;;;;2.47;100.00;99952.74;3397840;84;26354;-90
2023/01/08 08:14:24;;;;;;;54.87;29.83;;;;;;;2.51;100.00;99957.16;3450409;83;98672;-90
2023/01/08 08:19:25;;;;;;;54.43;27.53;;;;;;;2.59;100.00;99955.48;3474906;83;26457;-90
2023/01/08 08:24:26;;;;;;;50.27;28.40;;;;;;;2.68;100.00;99958.92;3452267;84;97701;-89
2023/01/08 08:29:27;;;;;;;56.17;29.40;;;;;;;2.76;100.00;99958.82;3465542;84;32831;-90
2023/01/08 08:34:27;;;;;;;56.47;29.00;;;;;;;2.99;100.00;99945.59;3458775;84;98602;-90
2023/01/08 08:39:28;;;;;;;56.40;30.33;;;;;;;2.99;100.00;99945.59;3464086;83;32864;-91
2023/01/08 08:44:29;;;;;;;52.97;30.73;;;;;;;3.15;100.00;99943.80;3449256;83;98287;-90
2023/01/08 08:49:30;;;;;;;59.80;32.07;;;;;;;3.35;100.00;99926.02;3464895;83;33072;-90
2023/01/08 08:54:31;;;;;;;52.10;30.57;;;;;;;3.51;100.00;99931.55;3472212;84;98441;-90
2023/01/08 08:59:32;;;;;;;53.33;30.10;;;;;;;3.66;100.00;99933.58;3472660;83;31392;-91
2023/01/08 09:04:33;;;;;;;53.57;30.83;;;;;;;3.76;100.00;99942.64;3459623;84;98351;-92
2023/01/08 09:09:34;;;;;;;54.25;30.23;;;;;;;3.87;100.00;99934.22;3461252;84;31672;-90
2023/01/08 09:14:35;;;;;;;48.90;29.07;;;;;;;3.98;100.00;99925.20;3450929;84;98308;-91
2023/01/08 09:19:36;;;;;;;51.53;29.77;;;;;;;4.11;100.00;99927.33;3440440;84;31563;-91
2023/01/08 09:24:36;;;;;;;53.63;29.97;;;;;;;4.24;100.00;99924.77;3443055;85;98384;-90
2023/01/08 09:29:37;;;;;;;51.10;30.25;;;;;;;4.37;100.00;99918.14;3447425;84;26006;-90
2023/01/08 09:34:38;;;;;;;51.13;29.80;;;;;;;4.51;100.00;99915.78;3429810;84;98614;-92
2023/01/08 09:39:39;;;;;;;52.03;31.60;;;;;;;4.66;100.00;99903.56;3444176;85;29780;-91
2023/01/08 09:44:43;;;;;;;47.83;27.00;;;;;;;4.83;100.00;99900.50;3436800;84;98241;-94
2023/01/08 09:49:46;;;;;;;47.88;27.40;;;;;;;4.99;100.00;99911.39;3442707;85;31798;-96
2023/01/08 09:54:47;;;;;;;48.87;27.90;;;;;;;5.11;100.00;99910.73;3427546;85;98486;-95
